TimeEST,TemperatureF,Dew PointF,Humidity,Sea Level PressureIn,VisibilityMPH,Wind Direction,Wind SpeedMPH,Gust SpeedMPH,PrecipitationIn,Events,Conditions,WindDirDegrees,DateUTC
12:01 AM,68.0,68.0,100,29.95,2.0,Calm,Calm,-,N/A,,Partly Cloudy,0,2012-12-18 05:01:00
12:20 AM,69.8,69.8,100,29.95,1.2,Calm,Calm,-,N/A,,Partly Cloudy,0,2012-12-18 05:20:00
12:26 AM,69.8,69.8,100,29.95,0.8,Calm,Calm,-,N/A,,Mist,0,2012-12-18 05:26:00
12:32 AM,69.8,69.8,100,29.95,1.0,Calm,Calm,-,N/A,,Mist,0,2012-12-18 05:32:00
12:39 AM,69.8,69.8,100,29.95,2.0,Calm,Calm,-,N/A,,Partly Cloudy,0,2012-12-18 05:39:00
12:53 AM,69.1,69.1,100,29.94,3.0,Calm,Calm,-,N/A,,Partly Cloudy,0,2012-12-18 05:53:00
1:12 AM,69.8,69.8,100,29.94,2.5,Calm,Calm,-,N/A,,Clear,0,2012-12-18 06:12:00
1:19 AM,69.8,69.8,100,29.94,1.2,Calm,Calm,-,N/A,,Partly Cloudy,0,2012-12-18 06:19:00
1:21 AM,68.0,68.0,100,29.94,0.8,Calm,Calm,-,N/A,,Mist,0,2012-12-18 06:21:00
1:26 AM,68.0,68.0,100,29.93,0.2,Calm,Calm,-,N/A,Fog,Fog,0,2012-12-18 06:26:00
1:53 AM,69.1,69.1,100,29.93,0.2,Calm,Calm,-,N/A,Fog,Fog,0,2012-12-18 06:53:00
2:24 AM,68.0,68.0,100,29.93,0.8,Calm,Calm,-,N/A,,Mist,0,2012-12-18 07:24:00
2:28 AM,68.0,68.0,100,29.92,2.0,SSW,3.5,-,N/A,,Mostly Cloudy,200,2012-12-18 07:28:00
2:34 AM,68.0,68.0,100,29.92,3.0,SSW,3.5,-,N/A,,Scattered Clouds,210,2012-12-18 07:34:00
2:53 AM,68.0,68.0,100,29.92,4.0,Calm,Calm,-,N/A,,Clear,0,2012-12-18 07:53:00
3:03 AM,68.0,68.0,100,29.92,1.2,Calm,Calm,-,N/A,,Partly Cloudy,0,2012-12-18 08:03:00
3:05 AM,66.2,66.2,100,29.92,0.8,Calm,Calm,-,N/A,,Mist,0,2012-12-18 08:05:00
3:08 AM,66.2,66.2,100,29.91,0.2,Calm,Calm,-,N/A,Fog,Fog,0,2012-12-18 08:08:00
3:25 AM,66.2,66.2,100,29.92,0.8,Calm,Calm,-,N/A,,Mist,0,2012-12-18 08:25:00
3:30 AM,68.0,68.0,100,29.92,1.2,Calm,Calm,-,N/A,,Scattered Clouds,0,2012-12-18 08:30:00
3:39 AM,68.0,68.0,100,29.92,0.8,Calm,Calm,-,N/A,,Mist,0,2012-12-18 08:39:00
3:53 AM,66.9,66.9,100,29.92,1.8,Calm,Calm,-,N/A,,Partly Cloudy,0,2012-12-18 08:53:00
4:06 AM,64.4,64.4,100,29.92,1.0,Calm,Calm,-,N/A,,Mist,0,2012-12-18 09:06:00
4:14 AM,66.2,66.2,100,29.92,0.8,Calm,Calm,-,N/A,,Mist,0,2012-12-18 09:14:00
4:18 AM,66.2,66.2,100,29.92,0.2,Calm,Calm,-,N/A,Fog,Fog,0,2012-12-18 09:18:00
4:53 AM,66.0,66.0,100,29.93,0.8,Calm,Calm,-,N/A,,Mist,0,2012-12-18 09:53:00
5:01 AM,66.2,66.2,100,29.93,0.5,Calm,Calm,-,N/A,Fog,Fog,0,2012-12-18 10:01:00
5:06 AM,66.2,66.2,100,29.93,1.0,Calm,Calm,-,N/A,,Mist,0,2012-12-18 10:06:00
5:08 AM,66.2,66.2,100,29.93,2.0,Calm,Calm,-,N/A,,Scattered Clouds,0,2012-12-18 10:08:00
5:15 AM,66.2,66.2,100,29.94,1.0,Calm,Calm,-,N/A,,Mist,0,2012-12-18 10:15:00
5:22 AM,66.2,66.2,100,29.94,0.5,Calm,Calm,-,N/A,Fog,Fog,0,2012-12-18 10:22:00
5:27 AM,66.2,66.2,100,29.94,0.8,SSW,3.5,-,N/A,,Mist,200,2012-12-18 10:27:00
5:40 AM,68.0,68.0,100,29.95,2.0,SSW,3.5,-,N/A,,Mostly Cloudy,210,2012-12-18 10:40:00
5:53 AM,68.0,68.0,100,29.95,2.0,Calm,Calm,-,N/A,,Scattered Clouds,0,2012-12-18 10:53:00
6:00 AM,69.8,69.8,100,29.96,1.0,Calm,Calm,-,N/A,,Mist,0,2012-12-18 11:00:00
6:04 AM,69.8,69.8,100,29.96,0.5,Calm,Calm,-,N/A,Fog,Fog,0,2012-12-18 11:04:00
6:23 AM,69.8,69.8,100,29.96,1.0,SSW,3.5,-,N/A,,Mist,210,2012-12-18 11:23:00
6:29 AM,68.0,68.0,100,29.97,0.5,Calm,Calm,-,N/A,Fog,Fog,0,2012-12-18 11:29:00
6:53 AM,69.1,69.1,100,29.97,0.2,Calm,Calm,-,N/A,Fog,Fog,0,2012-12-18 11:53:00
7:53 AM,69.1,69.1,100,29.99,0.2,West,3.5,-,N/A,Fog,Fog,280,2012-12-18 12:53:00
8:02 AM,69.8,69.8,100,29.99,5.0,West,3.5,-,N/A,,Clear,270,2012-12-18 13:02:00
8:53 AM,72.0,72.0,100,30.01,9.0,West,4.6,-,N/A,,Clear,270,2012-12-18 13:53:00
9:53 AM,75.9,72.0,87,30.01,10.0,West,6.9,-,N/A,,Scattered Clouds,260,2012-12-18 14:53:00
10:53 AM,77.0,72.0,84,30.01,10.0,West,10.4,-,N/A,,Clear,260,2012-12-18 15:53:00
11:53 AM,78.1,72.0,81,30.00,10.0,West,9.2,-,N/A,,Partly Cloudy,270,2012-12-18 16:53:00
12:53 PM,79.0,72.0,79,29.98,10.0,West,9.2,-,N/A,,Scattered Clouds,270,2012-12-18 17:53:00
1:53 PM,78.1,72.0,81,29.96,10.0,West,8.1,-,N/A,,Partly Cloudy,260,2012-12-18 18:53:00
2:53 PM,78.1,71.1,79,29.96,10.0,West,9.2,-,N/A,,Clear,280,2012-12-18 19:53:00
3:53 PM,77.0,71.1,82,29.96,10.0,West,6.9,-,N/A,,Partly Cloudy,270,2012-12-18 20:53:00
4:53 PM,75.0,72.0,90,29.97,10.0,West,5.8,-,N/A,,Scattered Clouds,260,2012-12-18 21:53:00
5:16 PM,73.4,71.6,94,29.97,10.0,West,8.1,-,N/A,,Mostly Cloudy,280,2012-12-18 22:16:00
5:24 PM,73.4,71.6,94,29.97,10.0,West,4.6,-,N/A,,Scattered Clouds,280,2012-12-18 22:24:00
5:53 PM,73.0,72.0,96,29.98,9.0,West,4.6,-,N/A,,Scattered Clouds,280,2012-12-18 22:53:00
6:53 PM,73.0,72.0,96,29.99,10.0,West,4.6,-,N/A,,Partly Cloudy,280,2012-12-18 23:53:00
7:53 PM,72.0,71.1,97,30.00,9.0,Calm,Calm,-,N/A,,Clear,0,2012-12-19 00:53:00
8:53 PM,71.1,70.0,96,30.01,7.0,Calm,Calm,-,N/A,,Clear,0,2012-12-19 01:53:00
9:30 PM,69.8,69.8,100,30.02,1.5,Calm,Calm,-,N/A,,Partly Cloudy,0,2012-12-19 02:30:00
9:40 PM,69.8,69.8,100,30.02,4.0,Calm,Calm,-,N/A,,Clear,0,2012-12-19 02:40:00
9:53 PM,70.0,69.1,97,30.02,7.0,Calm,Calm,-,N/A,,Clear,0,2012-12-19 02:53:00
10:53 PM,70.0,69.1,97,30.03,8.0,NNW,3.5,-,N/A,,Clear,340,2012-12-19 03:53:00
11:53 PM,69.1,68.0,96,30.03,7.0,Calm,Calm,-,N/A,,Clear,0,2012-12-19 04:53:00